Time;durP1;ratioP1;P1;durP2;ratioP2;P2;SDS_P1;SDS_P2;PMS_P1;PMS_P2;Temp;Humidity;BMP_temperature;BMP_pressure;BME280_temperature;BME280_humidity;BME280_pressure;Samples;Min_cycle;Max_cycle;Signal;HPM_P1;HPM_P2
2023/03/02 00:00:40;;;;;;;2.95;1.80;;;;;;;;;;5041942;28;20174;-67
2023/03/02 00:03:05;;;;;;;2.00;1.50;;;;;;;;;;5057266;28;20053;-70
2023/03/02 00:05:31;;;;;;;2.97;1.77;;;;;;;;;;5063035;28;20040;-71
2023/03/02 00:07:57;;;;;;;2.40;1.80;;;;;;;;;;5053485;28;20283;-72
2023/03/02 00:10:22;;;;;;;2.75;2.10;;;;;;;;;;5039440;28;20033;-70
2023/03/02 00:12:47;;;;;;;2.63;1.60;;;;;;;;;;5052186;28;20154;-66
2023/03/02 00:15:12;;;;;;;2.53;1.80;;;;;;;;;;5059794;28;20343;-72
2023/03/02 00:17:38;;;;;;;3.30;1.93;;;;;;;;;;5057754;28;20267;-70
2023/03/02 00:20:09;;;;;;;2.77;1.87;;;;;;;;;;5052990;28;20790;-69
2023/03/02 00:22:35;;;;;;;2.60;1.80;;;;;;;;;;5032801;28;20280;-67
2023/03/02 00:25:01;;;;;;;2.05;1.60;;;;;;;;;;5038168;28;20042;-71
2023/03/02 00:27:28;;;;;;;2.92;2.05;;;;;;;;;;5050298;28;20036;-71
2023/03/02 00:29:54;;;;;;;2.30;1.83;;;;;;;;;;5054661;28;20068;-73
2023/03/02 00:32:20;;;;;;;2.30;1.70;;;;;;;;;;5050925;28;20588;-68
2023/03/02 00:34:45;;;;;;;2.72;1.67;;;;;;;;;;5047409;28;20074;-68
2023/03/02 00:37:10;;;;;;;2.97;1.73;;;;;;;;;;5050714;28;20045;-68
2023/03/02 00:39:36;;;;;;;2.83;1.80;;;;;;;;;;5055339;28;20670;-67
2023/03/02 00:42:01;;;;;;;2.67;1.93;;;;;;;;;;5036745;28;20357;-66
2023/03/02 00:44:26;;;;;;;2.40;1.97;;;;;;;;;;5058296;28;20374;-64
2023/03/02 00:46:51;;;;;;;1.90;1.43;;;;;;;;;;5041925;28;20072;-71
2023/03/02 00:49:16;;;;;;;2.47;1.70;;;;;;;;;;5045759;28;20283;-68
2023/03/02 00:51:42;;;;;;;2.60;2.00;;;;;;;;;;5032548;28;20337;-74
2023/03/02 00:54:07;;;;;;;2.63;1.80;;;;;;;;;;5050598;28;20307;-72
2023/03/02 00:56:32;;;;;;;2.55;1.67;;;;;;;;;;5035160;28;20287;-72
2023/03/02 00:58:57;;;;;;;2.70;1.70;;;;;;;;;;5038195;28;20033;-69
2023/03/02 01:01:23;;;;;;;2.50;1.73;;;;;;;;;;5064406;28;20286;-71
2023/03/02 01:03:48;;;;;;;2.80;1.83;;;;;;;;;;5049224;28;20283;-67
2023/03/02 01:06:17;;;;;;;2.20;1.70;;;;;;;;;;5044448;28;20295;-72
2023/03/02 01:08:43;;;;;;;1.92;1.33;;;;;;;;;;5052652;28;20025;-74
2023/03/02 01:11:12;;;;;;;2.55;1.70;;;;;;;;;;5049795;28;20040;-73
2023/03/02 01:13:37;;;;;;;3.03;1.90;;;;;;;;;;5060971;28;20071;-72
2023/03/02 01:16:02;;;;;;;2.37;1.60;;;;;;;;;;5060586;28;20052;-71
2023/03/02 01:18:28;;;;;;;3.03;1.80;;;;;;;;;;5061265;28;20271;-67
2023/03/02 01:21:03;;;;;;;2.43;1.67;;;;;;;;;;5061202;28;20052;-66
2023/03/02 01:23:28;;;;;;;2.47;1.80;;;;;;;;;;5049239;28;20648;-73
2023/03/02 01:25:53;;;;;;;2.23;1.60;;;;;;;;;;5067546;28;20094;-71
2023/03/02 01:28:19;;;;;;;2.40;1.50;;;;;;;;;;5041289;28;20834;-72
2023/03/02 01:30:44;;;;;;;2.37;1.70;;;;;;;;;;5053631;28;20536;-68
2023/03/02 01:33:09;;;;;;;2.30;1.80;;;;;;;;;;5067024;28;20262;-72
2023/03/02 01:35:34;;;;;;;2.63;1.70;;;;;;;;;;5048847;28;20259;-71
2023/03/02 01:38:00;;;;;;;2.10;1.70;;;;;;;;;;5042723;28;20259;-64
2023/03/02 01:40:25;;;;;;;2.55;1.70;;;;;;;;;;5063584;28;20281;-69
2023/03/02 01:42:51;;;;;;;2.20;1.53;;;;;;;;;;5061041;28;20159;-71
2023/03/02 01:45:35;;;;;;;1.95;1.50;;;;;;;;;;5039155;28;20312;-69
2023/03/02 01:48:00;;;;;;;1.80;1.50;;;;;;;;;;5054267;28;20477;-66
2023/03/02 01:50:25;;;;;;;2.00;1.37;;;;;;;;;;5037317;28;20060;-65
2023/03/02 01:52:50;;;;;;;2.08;1.52;;;;;;;;;;5024376;28;20319;-67
2023/03/02 01:55:16;;;;;;;2.27;1.70;;;;;;;;;;5067196;28;20135;-70
2023/03/02 01:57:43;;;;;;;2.20;1.48;;;;;;;;;;5046672;28;20270;-71
2023/03/02 02:00:10;;;;;;;2.45;1.80;;;;;;;;;;5064819;28;20021;-68
2023/03/02 02:02:36;;;;;;;2.03;1.40;;;;;;;;;;5066830;28;20086;-70
2023/03/02 02:05:01;;;;;;;2.00;1.60;;;;;;;;;;5048307;28;20272;-67
2023/03/02 02:07:26;;;;;;;2.57;1.57;;;;;;;;;;5047702;28;20355;-70
2023/03/02 02:09:53;;;;;;;2.60;1.52;;;;;;;;;;5065618;28;20288;-70
2023/03/02 02:12:19;;;;;;;2.00;1.38;;;;;;;;;;5053163;28;20068;-72
2023/03/02 02:14:44;;;;;;;2.25;1.52;;;;;;;;;;5061752;28;20058;-72
2023/03/02 02:17:10;;;;;;;2.63;1.70;;;;;;;;;;5031572;28;20028;-72
2023/03/02 02:19:54;;;;;;;2.15;1.42;;;;;;;;;;5043172;28;20025;-68
2023/03/02 02:22:25;;;;;;;1.95;1.40;;;;;;;;;;5067051;28;20044;-74
2023/03/02 02:24:52;;;;;;;2.15;1.60;;;;;;;;;;5066618;28;20044;-70
2023/03/02 02:27:17;;;;;;;1.90;1.38;;;;;;;;;;5047031;28;20094;-71
2023/03/02 02:29:47;;;;;;;1.97;1.37;;;;;;;;;;5064494;28;20501;-71
2023/03/02 02:32:14;;;;;;;2.08;1.40;;;;;;;;;;5044915;28;20879;-71
2023/03/02 02:34:40;;;;;;;1.90;1.40;;;;;;;;;;5049105;28;20081;-69
2023/03/02 02:37:25;;;;;;;2.28;1.48;;;;;;;;;;5047399;28;20033;-70
2023/03/02 02:39:51;;;;;;;2.10;1.50;;;;;;;;;;5054517;28;20353;-71
2023/03/02 02:42:27;;;;;;;2.13;1.43;;;;;;;;;;5043056;28;20856;-68
2023/03/02 02:44:53;;;;;;;1.67;1.30;;;;;;;;;;5040652;28;20284;-70
2023/03/02 02:47:19;;;;;;;1.92;1.40;;;;;;;;;;5044457;28;20102;-71
2023/03/02 02:49:44;;;;;;;1.90;1.40;;;;;;;;;;5047807;28;20568;-71
2023/03/02 02:52:11;;;;;;;1.80;1.30;;;;;;;;;;5066249;28;20501;-70
2023/03/02 02:54:36;;;;;;;1.90;1.42;;;;;;;;;;5043034;28;20060;-70
2023/03/02 02:57:01;;;;;;;1.70;1.23;;;;;;;;;;5062908;28;20567;-68
2023/03/02 02:59:34;;;;;;;1.75;1.40;;;;;;;;;;5047497;28;20287;-70
2023/03/02 03:01:59;;;;;;;1.58;1.40;;;;;;;;;;5041552;28;20106;-73
2023/03/02 03:04:25;;;;;;;1.87;1.40;;;;;;;;;;5028554;28;20025;-72
2023/03/02 03:06:55;;;;;;;1.92;1.35;;;;;;;;;;5059194;28;20921;-71
2023/03/02 03:09:20;;;;;;;1.52;1.35;;;;;;;;;;5036493;28;20417;-68
2023/03/02 03:11:47;;;;;;;1.70;1.30;;;;;;;;;;5062745;28;20036;-66
2023/03/02 03:14:14;;;;;;;1.73;1.20;;;;;;;;;;5030908;28;20059;-71
2023/03/02 03:16:40;;;;;;;1.58;1.25;;;;;;;;;;5035495;28;20041;-69
2023/03/02 03:19:18;;;;;;;2.03;1.35;;;;;;;;;;5068934;28;20033;-66
2023/03/02 03:21:44;;;;;;;2.28;1.20;;;;;;;;;;5061127;28;20047;-73
2023/03/02 03:24:09;;;;;;;1.50;1.23;;;;;;;;;;5042410;28;20040;-73
2023/03/02 03:26:35;;;;;;;2.08;1.40;;;;;;;;;;5037641;28;20493;-72
2023/03/02 03:29:00;;;;;;;2.00;1.43;;;;;;;;;;5069753;28;20040;-73
2023/03/02 03:31:25;;;;;;;1.98;1.20;;;;;;;;;;5068098;28;20271;-72
2023/03/02 03:33:51;;;;;;;1.80;1.30;;;;;;;;;;5071461;28;20119;-69
2023/03/02 03:36:16;;;;;;;1.60;1.20;;;;;;;;;;5069358;28;20025;-65
2023/03/02 03:38:42;;;;;;;1.85;1.30;;;;;;;;;;5067786;28;20851;-71
2023/03/02 03:41:07;;;;;;;1.50;1.10;;;;;;;;;;5048867;28;20809;-67
2023/03/02 03:43:32;;;;;;;1.60;1.20;;;;;;;;;;5049509;28;20078;-70
2023/03/02 03:45:58;;;;;;;2.00;1.27;;;;;;;;;;5063085;28;20307;-70
2023/03/02 03:48:23;;;;;;;1.80;1.37;;;;;;;;;;5049434;28;20468;-70
2023/03/02 03:50:48;;;;;;;1.83;1.15;;;;;;;;;;5050791;28;20278;-73
2023/03/02 03:53:13;;;;;;;1.83;1.30;;;;;;;;;;5069297;28;20062;-63
2023/03/02 03:55:39;;;;;;;2.23;1.40;;;;;;;;;;5068622;28;20287;-71
2023/03/02 03:58:04;;;;;;;1.50;1.17;;;;;;;;;;5042167;28;20291;-71
2023/03/02 04:00:29;;;;;;;1.50;1.10;;;;;;;;;;5060462;28;20120;-70
2023/03/02 04:02:55;;;;;;;1.45;0.90;;;;;;;;;;5064573;28;20286;-69
2023/03/02 04:05:20;;;;;;;1.58;1.05;;;;;;;;;;5066775;28;20049;-68
2023/03/02 04:07:45;;;;;;;1.45;1.10;;;;;;;;;;5051798;28;20048;-67
2023/03/02 04:10:11;;;;;;;1.60;1.00;;;;;;;;;;5042060;28;20043;-69
2023/03/02 04:12:36;;;;;;;1.25;0.90;;;;;;;;;;5055862;28;20370;-68
2023/03/02 04:15:02;;;;;;;1.50;1.20;;;;;;;;;;5049327;28;20122;-71
2023/03/02 04:17:27;;;;;;;1.80;1.00;;;;;;;;;;5029295;28;20281;-68
2023/03/02 04:19:53;;;;;;;1.47;1.17;;;;;;;;;;5069381;28;20024;-68
2023/03/02 04:22:18;;;;;;;1.33;1.10;;;;;;;;;;5069423;28;20762;-72
2023/03/02 04:24:44;;;;;;;1.88;1.10;;;;;;;;;;5067914;28;20921;-70
2023/03/02 04:27:09;;;;;;;1.80;1.05;;;;;;;;;;5068376;28;20024;-73
2023/03/02 04:29:35;;;;;;;1.10;0.80;;;;;;;;;;5067534;28;20040;-72
2023/03/02 04:32:00;;;;;;;1.30;0.80;;;;;;;;;;5067857;28;20267;-71
2023/03/02 04:34:25;;;;;;;1.23;0.80;;;;;;;;;;5039436;28;20063;-66
2023/03/02 04:36:51;;;;;;;1.38;0.90;;;;;;;;;;5068586;28;20020;-70
2023/03/02 04:39:16;;;;;;;1.40;0.90;;;;;;;;;;5049272;28;20488;-70
2023/03/02 04:41:42;;;;;;;1.42;0.98;;;;;;;;;;5044870;28;20687;-74
2023/03/02 04:44:07;;;;;;;1.58;0.90;;;;;;;;;;5040102;28;20017;-74
2023/03/02 04:46:33;;;;;;;0.98;0.70;;;;;;;;;;5050321;28;20182;-67
2023/03/02 04:48:58;;;;;;;1.52;0.80;;;;;;;;;;5044392;28;20037;-71
2023/03/02 04:51:24;;;;;;;1.58;0.98;;;;;;;;;;5056961;28;20024;-74
2023/03/02 04:53:50;;;;;;;1.40;0.80;;;;;;;;;;5041976;28;20024;-73
2023/03/02 04:56:16;;;;;;;1.73;1.17;;;;;;;;;;5061224;28;20169;-70
2023/03/02 04:58:41;;;;;;;1.27;0.90;;;;;;;;;;5049672;28;20103;-71
2023/03/02 05:01:07;;;;;;;1.37;0.87;;;;;;;;;;5061148;28;20278;-69
2023/03/02 05:03:32;;;;;;;1.23;0.85;;;;;;;;;;5044861;28;20714;-72
2023/03/02 05:05:58;;;;;;;1.05;0.70;;;;;;;;;;5067955;28;20161;-72
2023/03/02 05:08:23;;;;;;;1.27;0.77;;;;;;;;;;5065370;28;20012;-72
2023/03/02 05:10:48;;;;;;;1.80;0.70;;;;;;;;;;5061075;28;20354;-70
2023/03/02 05:13:13;;;;;;;0.97;0.60;;;;;;;;;;5054930;28;20293;-67
2023/03/02 05:15:39;;;;;;;0.90;0.60;;;;;;;;;;5057615;28;20041;-70
2023/03/02 05:18:05;;;;;;;0.88;0.68;;;;;;;;;;5048526;28;20025;-66
2023/03/02 05:20:30;;;;;;;1.08;0.60;;;;;;;;;;5063230;28;20481;-75
2023/03/02 05:22:56;;;;;;;1.17;0.75;;;;;;;;;;5052906;28;20017;-72
2023/03/02 05:25:22;;;;;;;0.90;0.63;;;;;;;;;;5054498;28;20055;-71
2023/03/02 05:27:47;;;;;;;1.30;0.88;;;;;;;;;;5017232;28;20507;-71
2023/03/02 05:30:12;;;;;;;1.10;0.73;;;;;;;;;;5050862;28;20083;-71
2023/03/02 05:32:37;;;;;;;1.20;0.80;;;;;;;;;;5039156;28;20446;-69
2023/03/02 05:35:03;;;;;;;1.02;0.60;;;;;;;;;;5040329;28;20022;-72
2023/03/02 05:37:28;;;;;;;0.75;0.52;;;;;;;;;;5053909;28;20025;-71
2023/03/02 05:39:53;;;;;;;1.08;0.70;;;;;;;;;;5050197;28;20471;-70
2023/03/02 05:42:19;;;;;;;1.30;0.80;;;;;;;;;;5040756;28;20030;-67
2023/03/02 05:44:44;;;;;;;1.00;0.70;;;;;;;;;;5043082;28;20318;-68
2023/03/02 05:47:09;;;;;;;0.97;0.60;;;;;;;;;;5039110;28;20028;-71
2023/03/02 05:49:35;;;;;;;1.00;0.70;;;;;;;;;;5052129;28;21346;-73
2023/03/02 05:52:00;;;;;;;1.33;0.73;;;;;;;;;;5053419;28;20463;-66
2023/03/02 05:54:25;;;;;;;0.93;0.60;;;;;;;;;;5052324;28;20351;-68
2023/03/02 05:56:50;;;;;;;1.23;0.77;;;;;;;;;;5020813;28;20294;-68
2023/03/02 05:59:15;;;;;;;1.03;0.60;;;;;;;;;;5053739;28;20274;-65
2023/03/02 06:01:41;;;;;;;1.88;0.70;;;;;;;;;;5034387;28;20045;-68
2023/03/02 06:04:06;;;;;;;1.50;0.53;;;;;;;;;;5050573;28;20032;-67
2023/03/02 06:06:31;;;;;;;1.17;0.75;;;;;;;;;;5055184;28;20287;-73
2023/03/02 06:08:57;;;;;;;1.10;0.47;;;;;;;;;;5053652;28;20138;-74
2023/03/02 06:11:22;;;;;;;0.83;0.50;;;;;;;;;;5038602;28;20147;-66
2023/03/02 06:13:47;;;;;;;1.17;0.60;;;;;;;;;;5033685;28;20271;-69
2023/03/02 06:16:12;;;;;;;1.10;0.70;;;;;;;;;;5037958;28;20135;-64
2023/03/02 06:18:38;;;;;;;1.97;0.67;;;;;;;;;;5052934;28;20037;-71
2023/03/02 06:21:03;;;;;;;1.40;0.70;;;;;;;;;;5037112;28;20272;-69
2023/03/02 06:23:28;;;;;;;1.00;0.60;;;;;;;;;;5038833;28;20045;-65
2023/03/02 06:25:53;;;;;;;0.80;0.50;;;;;;;;;;5051611;28;20388;-68
2023/03/02 06:28:19;;;;;;;1.43;0.70;;;;;;;;;;5050861;28;20094;-69
2023/03/02 06:30:44;;;;;;;0.95;0.63;;;;;;;;;;5052286;28;20291;-68
2023/03/02 06:33:10;;;;;;;1.20;0.63;;;;;;;;;;5035400;28;20048;-67
2023/03/02 06:35:35;;;;;;;1.30;0.60;;;;;;;;;;5035170;28;21706;-69
2023/03/02 06:38:00;;;;;;;1.65;0.60;;;;;;;;;;5052621;28;20389;-71
2023/03/02 06:40:26;;;;;;;1.00;0.50;;;;;;;;;;5037661;28;20028;-69
2023/03/02 06:42:51;;;;;;;1.15;0.75;;;;;;;;;;5017386;28;20687;-68
2023/03/02 06:45:16;;;;;;;1.48;0.65;;;;;;;;;;5052466;28;20491;-67
2023/03/02 06:47:41;;;;;;;1.38;0.70;;;;;;;;;;5052143;28;20060;-72
2023/03/02 06:50:07;;;;;;;2.33;0.90;;;;;;;;;;5040577;28;20059;-69
2023/03/02 06:52:33;;;;;;;1.65;0.80;;;;;;;;;;5057013;28;20288;-67
2023/03/02 06:54:59;;;;;;;1.05;0.70;;;;;;;;;;5056527;28;20116;-73
2023/03/02 06:57:24;;;;;;;1.07;0.60;;;;;;;;;;5026385;28;20151;-71
2023/03/02 06:59:49;;;;;;;1.73;0.80;;;;;;;;;;5038552;28;20825;-70
2023/03/02 07:02:14;;;;;;;1.20;0.70;;;;;;;;;;5055187;28;20143;-64
2023/03/02 07:04:40;;;;;;;1.00;0.80;;;;;;;;;;5033100;28;20063;-71
2023/03/02 07:07:05;;;;;;;2.20;0.50;;;;;;;;;;5011741;28;21954;-67
2023/03/02 07:09:33;;;;;;;1.50;0.80;;;;;;;;;;5057142;28;20061;-71
2023/03/02 07:11:58;;;;;;;1.85;0.80;;;;;;;;;;5024314;28;20176;-71
2023/03/02 07:14:24;;;;;;;1.45;0.70;;;;;;;;;;5032236;28;20103;-78
2023/03/02 07:16:49;;;;;;;1.13;0.80;;;;;;;;;;5061620;28;20071;-74
2023/03/02 07:19:14;;;;;;;1.30;0.80;;;;;;;;;;5058873;28;20417;-68
2023/03/02 07:21:39;;;;;;;1.83;0.60;;;;;;;;;;5060202;28;20041;-71
2023/03/02 07:24:05;;;;;;;1.10;0.70;;;;;;;;;;5023779;28;20294;-66
2023/03/02 07:26:30;;;;;;;1.05;0.60;;;;;;;;;;5053048;28;20311;-67
2023/03/02 07:28:58;;;;;;;1.77;0.70;;;;;;;;;;5057956;28;20160;-66
2023/03/02 07:31:23;;;;;;;1.60;0.60;;;;;;;;;;5043824;28;22410;-72
2023/03/02 07:33:48;;;;;;;1.33;0.70;;;;;;;;;;5040555;28;20037;-64
2023/03/02 07:36:14;;;;;;;1.10;0.75;;;;;;;;;;5044015;28;20033;-68
2023/03/02 07:38:39;;;;;;;1.17;0.70;;;;;;;;;;5029222;28;20504;-73
2023/03/02 07:41:05;;;;;;;1.35;0.77;;;;;;;;;;5024877;28;20290;-68
2023/03/02 07:43:34;;;;;;;1.20;0.70;;;;;;;;;;5025245;28;20482;-65
2023/03/02 07:45:59;;;;;;;1.95;0.70;;;;;;;;;;5040697;28;20062;-71
2023/03/02 07:48:24;;;;;;;1.13;0.60;;;;;;;;;;5026748;28;20037;-67
2023/03/02 07:50:50;;;;;;;1.30;0.73;;;;;;;;;;5027717;28;20326;-70
2023/03/02 07:53:15;;;;;;;1.27;0.73;;;;;;;;;;5039313;28;21029;-71
2023/03/02 07:55:40;;;;;;;1.20;0.73;;;;;;;;;;5058198;28;20497;-73
2023/03/02 07:58:05;;;;;;;1.42;0.60;;;;;;;;;;5044101;28;20328;-68
2023/03/02 08:00:31;;;;;;;1.87;0.90;;;;;;;;;;5019654;28;20068;-70
2023/03/02 08:02:56;;;;;;;1.63;0.90;;;;;;;;;;5022504;28;20282;-71
2023/03/02 08:05:21;;;;;;;1.52;0.70;;;;;;;;;;5041967;28;20283;-65
2023/03/02 08:07:47;;;;;;;1.92;0.70;;;;;;;;;;5038328;28;20044;-68
2023/03/02 08:10:12;;;;;;;1.33;0.70;;;;;;;;;;5041468;28;20490;-65
2023/03/02 08:12:38;;;;;;;2.37;0.90;;;;;;;;;;5019378;28;21269;-66
2023/03/02 08:15:03;;;;;;;1.60;0.88;;;;;;;;;;5017768;28;20430;-69
2023/03/02 08:17:28;;;;;;;2.00;0.60;;;;;;;;;;5024583;28;20051;-68
2023/03/02 08:19:54;;;;;;;1.60;0.67;;;;;;;;;;5054694;28;20397;-69
2023/03/02 08:22:19;;;;;;;1.90;1.15;;;;;;;;;;5026011;28;20348;-71
2023/03/02 08:24:45;;;;;;;2.00;0.90;;;;;;;;;;5036659;28;20234;-69
2023/03/02 08:27:13;;;;;;;1.30;0.80;;;;;;;;;;5054839;28;20446;-72
2023/03/02 08:29:38;;;;;;;1.38;0.80;;;;;;;;;;5053258;28;20721;-66
2023/03/02 08:32:04;;;;;;;1.70;0.70;;;;;;;;;;5043291;28;20032;-72
2023/03/02 08:34:29;;;;;;;1.45;0.70;;;;;;;;;;5041717;28;20306;-68
2023/03/02 08:36:54;;;;;;;1.60;0.90;;;;;;;;;;5019512;28;20086;-67
2023/03/02 08:39:22;;;;;;;2.10;0.90;;;;;;;;;;5024705;28;20041;-69
2023/03/02 08:41:51;;;;;;;1.25;0.85;;;;;;;;;;5024931;28;20116;-67
2023/03/02 08:44:16;;;;;;;1.88;0.82;;;;;;;;;;5043980;28;20044;-72
2023/03/02 08:46:42;;;;;;;1.50;0.77;;;;;;;;;;5050031;28;20052;-72
2023/03/02 08:49:07;;;;;;;2.22;0.90;;;;;;;;;;5049851;28;20041;-71
2023/03/02 08:51:32;;;;;;;1.20;0.70;;;;;;;;;;5026774;28;20521;-71
2023/03/02 08:53:58;;;;;;;1.73;0.90;;;;;;;;;;5061758;28;20033;-69
2023/03/02 08:56:27;;;;;;;1.92;0.85;;;;;;;;;;5067923;28;20832;-71
2023/03/02 08:58:53;;;;;;;1.58;0.90;;;;;;;;;;5046649;28;20079;-67
2023/03/02 09:01:22;;;;;;;1.75;0.85;;;;;;;;;;5030260;28;20040;-68
2023/03/02 09:03:47;;;;;;;1.27;0.70;;;;;;;;;;5048734;28;20036;-67
2023/03/02 09:06:13;;;;;;;1.27;0.80;;;;;;;;;;5042104;28;20315;-67
2023/03/02 09:08:38;;;;;;;1.13;0.77;;;;;;;;;;5047335;28;20051;-69
2023/03/02 09:11:03;;;;;;;2.45;0.90;;;;;;;;;;5048575;28;20036;-69
2023/03/02 09:13:29;;;;;;;2.10;1.00;;;;;;;;;;5041493;28;20047;-71
2023/03/02 09:15:54;;;;;;;2.55;1.00;;;;;;;;;;5059663;28;20057;-71
2023/03/02 09:18:19;;;;;;;1.23;0.77;;;;;;;;;;5051760;28;20138;-67
2023/03/02 09:20:48;;;;;;;1.83;0.90;;;;;;;;;;5065433;28;20042;-68
2023/03/02 09:23:13;;;;;;;1.48;0.80;;;;;;;;;;5043341;28;20287;-65
2023/03/02 09:25:38;;;;;;;1.77;1.00;;;;;;;;;;5034259;28;20041;-68
2023/03/02 09:28:04;;;;;;;1.37;0.90;;;;;;;;;;5018230;28;20049;-63
2023/03/02 09:30:29;;;;;;;1.73;0.87;;;;;;;;;;5061147;28;20801;-71
2023/03/02 09:32:54;;;;;;;1.15;0.90;;;;;;;;;;5019687;28;20394;-73
2023/03/02 09:35:19;;;;;;;2.23;0.90;;;;;;;;;;5060125;28;20448;-65
2023/03/02 09:37:45;;;;;;;2.23;1.00;;;;;;;;;;5055611;28;20296;-72
2023/03/02 09:40:28;;;;;;;1.60;0.90;;;;;;;;;;5048669;28;20141;-71
2023/03/02 09:42:59;;;;;;;1.52;1.00;;;;;;;;;;5042158;28;20294;-70
2023/03/02 09:45:28;;;;;;;1.60;1.00;;;;;;;;;;5045452;28;20036;-66
2023/03/02 09:47:56;;;;;;;1.33;0.75;;;;;;;;;;5061098;28;20135;-69
2023/03/02 09:50:32;;;;;;;1.42;0.90;;;;;;;;;;5047649;28;20108;-71
2023/03/02 09:53:15;;;;;;;1.60;0.70;;;;;;;;;;5067507;28;20123;-69
2023/03/02 09:55:40;;;;;;;1.60;0.95;;;;;;;;;;5031178;28;20068;-72
2023/03/02 09:58:07;;;;;;;1.42;0.95;;;;;;;;;;5047572;28;20056;-65
2023/03/02 10:00:36;;;;;;;1.85;1.05;;;;;;;;;;5037747;28;20488;-68
2023/03/02 10:03:07;;;;;;;1.30;0.80;;;;;;;;;;5036660;28;20050;-70
2023/03/02 10:05:39;;;;;;;1.50;0.80;;;;;;;;;;5023646;28;20032;-73
2023/03/02 10:08:04;;;;;;;2.35;0.90;;;;;;;;;;5038487;28;20039;-70
2023/03/02 10:10:30;;;;;;;3.13;1.02;;;;;;;;;;5022373;28;20322;-73
2023/03/02 10:13:01;;;;;;;2.30;0.87;;;;;;;;;;5057090;28;20504;-66
2023/03/02 10:15:30;;;;;;;2.70;1.30;;;;;;;;;;5036699;28;20334;-67
2023/03/02 10:18:14;;;;;;;2.72;1.20;;;;;;;;;;5034430;28;20044;-67
2023/03/02 10:20:48;;;;;;;5.53;1.20;;;;;;;;;;5036802;28;20102;-71
2023/03/02 10:23:29;;;;;;;1.88;1.10;;;;;;;;;;5054608;28;20048;-69
2023/03/02 10:25:58;;;;;;;2.05;0.95;;;;;;;;;;5037212;28;20066;-66
2023/03/02 10:28:25;;;;;;;2.58;1.10;;;;;;;;;;5038217;28;20037;-68
2023/03/02 10:30:52;;;;;;;2.50;1.05;;;;;;;;;;5037851;28;20512;-72
2023/03/02 10:33:18;;;;;;;2.35;0.90;;;;;;;;;;5022946;28;21030;-65
2023/03/02 10:35:47;;;;;;;2.22;1.05;;;;;;;;;;5037540;28;20040;-71
2023/03/02 10:38:19;;;;;;;2.35;1.10;;;;;;;;;;5054705;28;20222;-64
2023/03/02 10:40:48;;;;;;;1.75;0.98;;;;;;;;;;5023835;28;20029;-70
2023/03/02 10:43:32;;;;;;;1.80;1.20;;;;;;;;;;5022187;28;20055;-70
2023/03/02 10:46:01;;;;;;;1.25;0.82;;;;;;;;;;5055551;28;20050;-67
2023/03/02 10:48:27;;;;;;;2.35;1.00;;;;;;;;;;5056596;28;20041;-75
2023/03/02 10:50:52;;;;;;;1.90;0.80;;;;;;;;;;5058321;28;20512;-71
2023/03/02 10:53:18;;;;;;;1.73;1.10;;;;;;;;;;5024245;28;20040;-69
2023/03/02 10:55:47;;;;;;;1.27;0.90;;;;;;;;;;5040857;28;20033;-74
2023/03/02 10:58:24;;;;;;;1.75;1.10;;;;;;;;;;5040397;28;20040;-64
2023/03/02 11:00:57;;;;;;;1.30;0.85;;;;;;;;;;5039857;28;20067;-66
2023/03/02 11:03:22;;;;;;;1.95;1.05;;;;;;;;;;5040859;28;20115;-74
2023/03/02 11:05:48;;;;;;;1.88;1.00;;;;;;;;;;5056533;28;20151;-67
2023/03/02 11:08:20;;;;;;;2.55;1.00;;;;;;;;;;5054064;28;20040;-70
2023/03/02 11:10:58;;;;;;;3.08;1.15;;;;;;;;;;5019129;28;20033;-67
2023/03/02 11:13:30;;;;;;;1.42;0.90;;;;;;;;;;5052878;28;20026;-70
2023/03/02 11:16:14;;;;;;;1.88;0.90;;;;;;;;;;5033706;28;20053;-66
2023/03/02 11:18:40;;;;;;;1.90;1.00;;;;;;;;;;5039166;28;20053;-73
2023/03/02 11:21:16;;;;;;;1.58;0.98;;;;;;;;;;5037130;28;20041;-75
2023/03/02 11:23:50;;;;;;;1.55;0.95;;;;;;;;;;5020502;28;20106;-79
2023/03/02 11:26:19;;;;;;;2.53;0.90;;;;;;;;;;5036438;28;20041;-67
2023/03/02 11:28:56;;;;;;;1.98;1.00;;;;;;;;;;5038990;28;20104;-69
2023/03/02 11:31:40;;;;;;;1.77;0.88;;;;;;;;;;5031955;28;20056;-66
2023/03/02 11:34:06;;;;;;;1.60;0.90;;;;;;;;;;5033836;28;20048;-68
2023/03/02 11:37:01;;;;;;;1.90;1.02;;;;;;;;;;5040231;28;20114;-68
2023/03/02 11:39:55;;;;;;;1.42;0.90;;;;;;;;;;5033924;28;20045;-73
2023/03/02 11:42:25;;;;;;;1.58;0.90;;;;;;;;;;5034208;28;20121;-66
2023/03/02 11:44:51;;;;;;;1.48;0.98;;;;;;;;;;5041875;28;20040;-64
2023/03/02 11:47:16;;;;;;;1.77;1.00;;;;;;;;;;5039753;28;21217;-68
2023/03/02 11:49:43;;;;;;;1.40;1.10;;;;;;;;;;5024926;28;20380;-69
2023/03/02 11:52:14;;;;;;;1.67;1.00;;;;;;;;;;5034990;28;20048;-64
2023/03/02 11:54:40;;;;;;;1.23;0.88;;;;;;;;;;5038363;28;21613;-70
2023/03/02 11:57:05;;;;;;;1.40;1.00;;;;;;;;;;5039462;28;20045;-70
2023/03/02 11:59:30;;;;;;;1.60;0.88;;;;;;;;;;5038580;28;20045;-70
2023/03/02 12:01:56;;;;;;;1.40;1.10;;;;;;;;;;5019369;28;20957;-66
2023/03/02 12:04:24;;;;;;;1.85;1.10;;;;;;;;;;5019754;28;20033;-67
2023/03/02 12:06:49;;;;;;;1.75;1.10;;;;;;;;;;5047170;28;20051;-70
2023/03/02 12:09:21;;;;;;;1.10;0.90;;;;;;;;;;5022194;28;22146;-66
2023/03/02 12:11:46;;;;;;;2.28;1.25;;;;;;;;;;5037039;28;20103;-65
2023/03/02 12:14:35;;;;;;;1.23;0.90;;;;;;;;;;5041263;28;20740;-66
2023/03/02 12:17:19;;;;;;;1.80;0.80;;;;;;;;;;5048011;28;20047;-68
2023/03/02 12:19:44;;;;;;;2.10;0.98;;;;;;;;;;5055832;28;21960;-69
2023/03/02 12:22:11;;;;;;;2.22;1.00;;;;;;;;;;5026362;28;20957;-69
2023/03/02 12:24:37;;;;;;;1.80;1.17;;;;;;;;;;5025564;28;20041;-66
2023/03/02 12:27:06;;;;;;;1.42;0.85;;;;;;;;;;5056967;28;20037;-68
2023/03/02 12:29:37;;;;;;;1.33;0.82;;;;;;;;;;5041301;28;20137;-70
2023/03/02 12:32:09;;;;;;;1.52;1.00;;;;;;;;;;5053861;28;20131;-67
2023/03/02 12:34:35;;;;;;;1.60;1.13;;;;;;;;;;5052875;28;20032;-69
2023/03/02 12:37:21;;;;;;;1.23;0.90;;;;;;;;;;5025891;28;20052;-63
2023/03/02 12:39:54;;;;;;;1.25;0.90;;;;;;;;;;5055755;28;20043;-68
2023/03/02 12:42:20;;;;;;;1.40;1.10;;;;;;;;;;5025355;28;20041;-69
2023/03/02 12:44:48;;;;;;;1.40;1.00;;;;;;;;;;5042087;28;20489;-71
2023/03/02 12:47:25;;;;;;;1.52;1.20;;;;;;;;;;5024734;28;20311;-69
2023/03/02 12:49:58;;;;;;;1.65;1.15;;;;;;;;;;5040367;28;20084;-70
2023/03/02 12:52:31;;;;;;;1.65;1.15;;;;;;;;;;5041947;28;20020;-65
2023/03/02 12:55:06;;;;;;;1.17;0.82;;;;;;;;;;5036949;28;20032;-69
2023/03/02 12:57:32;;;;;;;1.40;1.00;;;;;;;;;;5037440;28;20781;-68
2023/03/02 12:59:58;;;;;;;1.67;0.95;;;;;;;;;;5055098;28;20047;-70
2023/03/02 13:02:24;;;;;;;1.55;1.20;;;;;;;;;;5053174;28;20500;-72
2023/03/02 13:04:55;;;;;;;1.65;1.15;;;;;;;;;;5056230;28;20037;-68
2023/03/02 13:07:22;;;;;;;1.55;1.10;;;;;;;;;;5036295;28;20051;-64
2023/03/02 13:09:48;;;;;;;1.73;0.90;;;;;;;;;;5052043;28;20116;-69
2023/03/02 13:12:13;;;;;;;1.77;1.05;;;;;;;;;;5028716;28;20092;-70
2023/03/02 13:14:39;;;;;;;1.30;0.97;;;;;;;;;;5027350;28;20056;-70
2023/03/02 13:17:04;;;;;;;1.15;0.90;;;;;;;;;;5063756;28;20722;-67
2023/03/02 13:19:30;;;;;;;1.43;0.90;;;;;;;;;;5031525;28;20463;-70
2023/03/02 13:21:56;;;;;;;1.95;1.10;;;;;;;;;;5047870;28;20283;-67
2023/03/02 13:24:32;;;;;;;1.35;1.00;;;;;;;;;;5041673;28;20493;-65
2023/03/02 13:27:07;;;;;;;1.35;0.95;;;;;;;;;;5056362;28;20076;-75
2023/03/02 13:29:32;;;;;;;1.50;1.00;;;;;;;;;;5034140;28;20053;-70
2023/03/02 13:32:09;;;;;;;1.52;1.05;;;;;;;;;;5042610;28;20041;-70
2023/03/02 13:34:34;;;;;;;1.30;0.90;;;;;;;;;;5032803;28;20051;-70
2023/03/02 13:36:59;;;;;;;1.65;0.98;;;;;;;;;;5050826;28;20032;-67
2023/03/02 13:39:28;;;;;;;1.37;0.97;;;;;;;;;;5029876;28;20029;-69
2023/03/02 13:41:55;;;;;;;1.40;1.02;;;;;;;;;;5050905;28;20037;-64
2023/03/02 13:44:24;;;;;;;1.92;1.10;;;;;;;;;;5048961;28;20070;-73
2023/03/02 13:46:49;;;;;;;1.45;0.85;;;;;;;;;;5056010;28;20072;-73
2023/03/02 13:49:24;;;;;;;1.40;0.93;;;;;;;;;;5030882;28;20057;-64
2023/03/02 13:51:49;;;;;;;2.33;1.10;;;;;;;;;;5054452;28;20425;-69
2023/03/02 13:54:18;;;;;;;1.37;1.00;;;;;;;;;;5038011;28;20057;-70
2023/03/02 13:56:43;;;;;;;1.38;0.88;;;;;;;;;;5046095;28;20355;-69
2023/03/02 13:59:12;;;;;;;1.60;1.30;;;;;;;;;;5048146;28;20194;-69
2023/03/02 14:01:37;;;;;;;1.60;1.13;;;;;;;;;;5043472;28;20299;-71
2023/03/02 14:04:02;;;;;;;2.40;1.20;;;;;;;;;;5036639;28;20046;-68
2023/03/02 14:06:28;;;;;;;1.27;0.90;;;;;;;;;;5022204;28;20521;-68
2023/03/02 14:08:53;;;;;;;1.57;1.00;;;;;;;;;;5049770;28;20283;-70
2023/03/02 14:11:18;;;;;;;1.33;1.00;;;;;;;;;;5048817;28;21237;-67
2023/03/02 14:13:51;;;;;;;2.00;1.10;;;;;;;;;;5022991;28;20293;-69
2023/03/02 14:16:16;;;;;;;1.63;1.00;;;;;;;;;;5049637;28;20048;-71
2023/03/02 14:18:43;;;;;;;1.60;1.20;;;;;;;;;;5020550;28;20060;-72
2023/03/02 14:21:27;;;;;;;1.58;0.93;;;;;;;;;;5060813;28;21028;-70
2023/03/02 14:23:53;;;;;;;1.33;1.02;;;;;;;;;;5040395;28;20077;-70
2023/03/02 14:26:18;;;;;;;1.35;0.80;;;;;;;;;;5038903;28;20057;-66
2023/03/02 14:28:43;;;;;;;1.23;0.98;;;;;;;;;;5040501;28;20075;-68
2023/03/02 14:31:08;;;;;;;1.53;1.00;;;;;;;;;;5021143;28;20040;-67
2023/03/02 14:33:35;;;;;;;1.80;1.00;;;;;;;;;;5021476;28;20294;-68
2023/03/02 14:36:00;;;;;;;1.48;0.98;;;;;;;;;;5038575;28;20291;-66
2023/03/02 14:38:25;;;;;;;1.57;0.87;;;;;;;;;;5015442;28;20089;-69
2023/03/02 14:40:51;;;;;;;1.50;0.95;;;;;;;;;;5022291;28;20297;-68
2023/03/02 14:43:17;;;;;;;1.70;1.00;;;;;;;;;;5058018;28;20036;-66